sensor_id;sensor_type;location;lat;lon;timestamp;P1;durP1;ratioP1;P2;durP2;ratioP2
60098;SDS011;62818;49.394;8.686;2023-10-13T00:00:36;12.63;;;5.90;;
60098;SDS011;62818;49.394;8.686;2023-10-13T00:01:37;12.83;;;5.90;;
60098;SDS011;62818;49.394;8.686;2023-10-13T00:02:37;14.40;;;5.83;;
60098;SDS011;62818;49.394;8.686;2023-10-13T00:03:39;14.18;;;6.50;;
60098;SDS011;62818;49.394;8.686;2023-10-13T00:04:40;8.52;;;4.82;;
60098;SDS011;62818;49.394;8.686;2023-10-13T00:05:42;15.57;;;5.65;;
60098;SDS011;62818;49.394;8.686;2023-10-13T00:06:43;12.65;;;5.70;;
60098;SDS011;62818;49.394;8.686;2023-10-13T00:07:45;11.98;;;5.35;;
60098;SDS011;62818;49.394;8.686;2023-10-13T00:08:46;10.53;;;6.13;;
60098;SDS011;62818;49.394;8.686;2023-10-13T00:09:46;11.63;;;6.80;;
60098;SDS011;62818;49.394;8.686;2023-10-13T00:10:47;9.77;;;6.07;;
60098;SDS011;62818;49.394;8.686;2023-10-13T00:11:47;13.30;;;5.90;;
60098;SDS011;62818;49.394;8.686;2023-10-13T00:12:48;13.63;;;5.77;;
60098;SDS011;62818;49.394;8.686;2023-10-13T00:13:52;14.52;;;5.80;;
60098;SDS011;62818;49.394;8.686;2023-10-13T00:14:54;14.13;;;5.63;;
60098;SDS011;62818;49.394;8.686;2023-10-13T00:15:54;17.30;;;5.97;;
60098;SDS011;62818;49.394;8.686;2023-10-13T00:17:01;15.10;;;6.00;;
60098;SDS011;62818;49.394;8.686;2023-10-13T00:18:15;17.40;;;6.22;;
60098;SDS011;62818;49.394;8.686;2023-10-13T00:19:16;13.23;;;6.30;;
60098;SDS011;62818;49.394;8.686;2023-10-13T00:20:18;21.60;;;7.55;;
60098;SDS011;62818;49.394;8.686;2023-10-13T00:21:33;11.75;;;5.95;;
60098;SDS011;62818;49.394;8.686;2023-10-13T00:22:35;11.57;;;6.03;;
60098;SDS011;62818;49.394;8.686;2023-10-13T00:23:40;23.92;;;6.32;;
60098;SDS011;62818;49.394;8.686;2023-10-13T00:24:54;13.23;;;6.18;;
60098;SDS011;62818;49.394;8.686;2023-10-13T00:26:03;15.32;;;6.10;;
60098;SDS011;62818;49.394;8.686;2023-10-13T00:27:03;15.47;;;6.53;;
60098;SDS011;62818;49.394;8.686;2023-10-13T00:28:05;18.25;;;6.53;;
60098;SDS011;62818;49.394;8.686;2023-10-13T00:29:08;13.38;;;6.20;;
60098;SDS011;62818;49.394;8.686;2023-10-13T00:30:16;13.63;;;5.47;;
60098;SDS011;62818;49.394;8.686;2023-10-13T00:31:22;10.90;;;5.60;;
60098;SDS011;62818;49.394;8.686;2023-10-13T00:32:23;12.30;;;6.03;;
60098;SDS011;62818;49.394;8.686;2023-10-13T00:33:27;13.75;;;6.07;;
60098;SDS011;62818;49.394;8.686;2023-10-13T00:34:28;20.33;;;6.22;;
60098;SDS011;62818;49.394;8.686;2023-10-13T00:35:37;13.60;;;5.47;;
60098;SDS011;62818;49.394;8.686;2023-10-13T00:36:42;12.82;;;6.38;;
60098;SDS011;62818;49.394;8.686;2023-10-13T00:37:48;14.63;;;5.88;;
60098;SDS011;62818;49.394;8.686;2023-10-13T00:38:53;18.88;;;6.53;;
60098;SDS011;62818;49.394;8.686;2023-10-13T00:39:56;13.88;;;5.75;;
60098;SDS011;62818;49.394;8.686;2023-10-13T00:40:56;13.98;;;5.70;;
60098;SDS011;62818;49.394;8.686;2023-10-13T00:42:04;14.82;;;5.80;;
60098;SDS011;62818;49.394;8.686;2023-10-13T00:43:08;11.90;;;6.18;;
60098;SDS011;62818;49.394;8.686;2023-10-13T00:44:18;8.98;;;5.90;;
60098;SDS011;62818;49.394;8.686;2023-10-13T00:45:28;11.57;;;5.88;;
60098;SDS011;62818;49.394;8.686;2023-10-13T00:46:34;11.45;;;6.25;;
60098;SDS011;62818;49.394;8.686;2023-10-13T00:47:39;12.73;;;6.18;;
60098;SDS011;62818;49.394;8.686;2023-10-13T00:48:40;12.37;;;5.93;;
60098;SDS011;62818;49.394;8.686;2023-10-13T00:49:46;19.02;;;6.45;;
60098;SDS011;62818;49.394;8.686;2023-10-13T00:50:47;19.55;;;5.65;;
60098;SDS011;62818;49.394;8.686;2023-10-13T00:51:49;17.10;;;6.63;;
60098;SDS011;62818;49.394;8.686;2023-10-13T00:52:50;18.40;;;6.18;;
60098;SDS011;62818;49.394;8.686;2023-10-13T00:53:51;15.93;;;6.63;;
60098;SDS011;62818;49.394;8.686;2023-10-13T00:54:52;12.47;;;6.60;;
60098;SDS011;62818;49.394;8.686;2023-10-13T00:55:53;13.50;;;6.38;;
60098;SDS011;62818;49.394;8.686;2023-10-13T00:56:57;16.40;;;6.25;;
60098;SDS011;62818;49.394;8.686;2023-10-13T00:58:04;11.93;;;6.70;;
60098;SDS011;62818;49.394;8.686;2023-10-13T00:59:08;14.73;;;5.78;;
60098;SDS011;62818;49.394;8.686;2023-10-13T01:00:10;12.77;;;6.25;;
60098;SDS011;62818;49.394;8.686;2023-10-13T01:01:24;11.48;;;5.75;;
60098;SDS011;62818;49.394;8.686;2023-10-13T01:02:33;10.57;;;6.03;;
60098;SDS011;62818;49.394;8.686;2023-10-13T01:03:36;16.45;;;6.57;;
60098;SDS011;62818;49.394;8.686;2023-10-13T01:04:38;10.60;;;5.70;;
60098;SDS011;62818;49.394;8.686;2023-10-13T01:05:39;13.33;;;6.03;;
60098;SDS011;62818;49.394;8.686;2023-10-13T01:06:41;9.50;;;5.90;;
60098;SDS011;62818;49.394;8.686;2023-10-13T01:07:41;24.50;;;6.20;;
60098;SDS011;62818;49.394;8.686;2023-10-13T01:08:44;21.77;;;6.60;;
60098;SDS011;62818;49.394;8.686;2023-10-13T01:09:50;18.20;;;6.07;;
60098;SDS011;62818;49.394;8.686;2023-10-13T01:10:51;15.87;;;6.27;;
60098;SDS011;62818;49.394;8.686;2023-10-13T01:11:53;12.55;;;5.78;;
60098;SDS011;62818;49.394;8.686;2023-10-13T01:12:55;15.70;;;6.13;;
60098;SDS011;62818;49.394;8.686;2023-10-13T01:13:55;11.73;;;6.50;;
60098;SDS011;62818;49.394;8.686;2023-10-13T01:14:57;13.20;;;5.72;;
60098;SDS011;62818;49.394;8.686;2023-10-13T01:15:59;15.48;;;5.90;;
60098;SDS011;62818;49.394;8.686;2023-10-13T01:17:01;13.45;;;5.68;;
60098;SDS011;62818;49.394;8.686;2023-10-13T01:18:07;15.50;;;6.18;;
60098;SDS011;62818;49.394;8.686;2023-10-13T01:19:15;10.57;;;5.60;;
60098;SDS011;62818;49.394;8.686;2023-10-13T01:20:35;12.60;;;5.68;;
60098;SDS011;62818;49.394;8.686;2023-10-13T01:21:42;10.93;;;5.80;;
60098;SDS011;62818;49.394;8.686;2023-10-13T01:22:47;12.55;;;5.93;;
60098;SDS011;62818;49.394;8.686;2023-10-13T01:23:56;8.82;;;5.18;;
60098;SDS011;62818;49.394;8.686;2023-10-13T01:24:57;14.57;;;5.60;;
60098;SDS011;62818;49.394;8.686;2023-10-13T01:26:06;12.68;;;5.35;;
60098;SDS011;62818;49.394;8.686;2023-10-13T01:27:07;13.90;;;5.90;;
60098;SDS011;62818;49.394;8.686;2023-10-13T01:28:17;7.45;;;4.97;;
60098;SDS011;62818;49.394;8.686;2023-10-13T01:29:18;16.83;;;5.70;;
60098;SDS011;62818;49.394;8.686;2023-10-13T01:30:19;14.43;;;5.47;;
60098;SDS011;62818;49.394;8.686;2023-10-13T01:31:24;18.88;;;6.20;;
60098;SDS011;62818;49.394;8.686;2023-10-13T01:32:27;13.93;;;6.57;;
60098;SDS011;62818;49.394;8.686;2023-10-13T01:33:28;17.00;;;7.63;;
60098;SDS011;62818;49.394;8.686;2023-10-13T01:34:29;15.65;;;5.75;;
60098;SDS011;62818;49.394;8.686;2023-10-13T01:35:33;15.07;;;5.50;;
60098;SDS011;62818;49.394;8.686;2023-10-13T01:36:37;15.30;;;5.60;;
60098;SDS011;62818;49.394;8.686;2023-10-13T01:37:40;11.85;;;6.07;;
60098;SDS011;62818;49.394;8.686;2023-10-13T01:38:40;11.43;;;5.40;;
60098;SDS011;62818;49.394;8.686;2023-10-13T01:39:42;16.33;;;5.97;;
60098;SDS011;62818;49.394;8.686;2023-10-13T01:40:47;19.23;;;5.65;;
60098;SDS011;62818;49.394;8.686;2023-10-13T01:41:51;11.18;;;5.10;;
60098;SDS011;62818;49.394;8.686;2023-10-13T01:42:55;13.00;;;4.80;;
60098;SDS011;62818;49.394;8.686;2023-10-13T01:43:56;15.03;;;5.60;;
60098;SDS011;62818;49.394;8.686;2023-10-13T01:44:57;16.17;;;5.82;;
60098;SDS011;62818;49.394;8.686;2023-10-13T01:46:05;13.43;;;5.03;;
60098;SDS011;62818;49.394;8.686;2023-10-13T01:47:05;15.47;;;5.83;;
60098;SDS011;62818;49.394;8.686;2023-10-13T01:48:06;14.83;;;5.30;;
60098;SDS011;62818;49.394;8.686;2023-10-13T01:49:07;16.35;;;6.10;;
60098;SDS011;62818;49.394;8.686;2023-10-13T01:50:08;17.27;;;6.47;;
60098;SDS011;62818;49.394;8.686;2023-10-13T01:51:20;15.57;;;5.35;;
60098;SDS011;62818;49.394;8.686;2023-10-13T01:52:23;15.60;;;5.28;;
60098;SDS011;62818;49.394;8.686;2023-10-13T01:53:25;14.27;;;5.43;;
60098;SDS011;62818;49.394;8.686;2023-10-13T01:54:28;14.02;;;5.57;;
60098;SDS011;62818;49.394;8.686;2023-10-13T01:55:29;11.40;;;5.17;;
60098;SDS011;62818;49.394;8.686;2023-10-13T01:56:29;10.50;;;5.23;;
60098;SDS011;62818;49.394;8.686;2023-10-13T01:57:30;10.90;;;5.35;;
60098;SDS011;62818;49.394;8.686;2023-10-13T01:58:32;13.32;;;5.57;;
60098;SDS011;62818;49.394;8.686;2023-10-13T01:59:34;19.52;;;6.03;;
60098;SDS011;62818;49.394;8.686;2023-10-13T02:00:44;18.27;;;5.63;;
60098;SDS011;62818;49.394;8.686;2023-10-13T02:01:49;20.23;;;5.15;;
60098;SDS011;62818;49.394;8.686;2023-10-13T02:02:51;10.38;;;5.20;;
60098;SDS011;62818;49.394;8.686;2023-10-13T02:03:53;16.02;;;5.18;;
60098;SDS011;62818;49.394;8.686;2023-10-13T02:05:03;14.10;;;5.25;;
60098;SDS011;62818;49.394;8.686;2023-10-13T02:06:04;15.10;;;9.88;;
60098;SDS011;62818;49.394;8.686;2023-10-13T02:07:05;17.05;;;9.15;;
60098;SDS011;62818;49.394;8.686;2023-10-13T02:08:09;16.27;;;5.47;;
60098;SDS011;62818;49.394;8.686;2023-10-13T02:09:17;13.98;;;5.13;;
60098;SDS011;62818;49.394;8.686;2023-10-13T02:10:25;14.13;;;6.97;;
60098;SDS011;62818;49.394;8.686;2023-10-13T02:11:28;20.90;;;6.50;;
60098;SDS011;62818;49.394;8.686;2023-10-13T02:12:29;18.55;;;5.70;;
60098;SDS011;62818;49.394;8.686;2023-10-13T02:13:36;17.00;;;4.93;;
60098;SDS011;62818;49.394;8.686;2023-10-13T02:14:42;17.92;;;6.85;;
60098;SDS011;62818;49.394;8.686;2023-10-13T02:15:45;15.85;;;5.53;;
60098;SDS011;62818;49.394;8.686;2023-10-13T02:16:48;9.13;;;5.35;;
60098;SDS011;62818;49.394;8.686;2023-10-13T02:17:55;13.73;;;5.28;;
60098;SDS011;62818;49.394;8.686;2023-10-13T02:18:56;17.90;;;8.90;;
60098;SDS011;62818;49.394;8.686;2023-10-13T02:20:05;15.82;;;6.03;;
60098;SDS011;62818;49.394;8.686;2023-10-13T02:21:09;15.93;;;5.90;;
60098;SDS011;62818;49.394;8.686;2023-10-13T02:22:13;10.88;;;5.95;;
60098;SDS011;62818;49.394;8.686;2023-10-13T02:23:32;15.52;;;5.93;;
60098;SDS011;62818;49.394;8.686;2023-10-13T02:24:33;13.13;;;5.70;;
60098;SDS011;62818;49.394;8.686;2023-10-13T02:25:34;18.57;;;5.70;;
60098;SDS011;62818;49.394;8.686;2023-10-13T02:26:35;15.07;;;5.13;;
60098;SDS011;62818;49.394;8.686;2023-10-13T02:27:38;13.63;;;5.65;;
60098;SDS011;62818;49.394;8.686;2023-10-13T02:28:41;14.20;;;5.88;;
60098;SDS011;62818;49.394;8.686;2023-10-13T02:29:44;16.23;;;5.38;;
60098;SDS011;62818;49.394;8.686;2023-10-13T02:30:49;18.80;;;4.97;;
60098;SDS011;62818;49.394;8.686;2023-10-13T02:31:50;11.38;;;4.95;;
60098;SDS011;62818;49.394;8.686;2023-10-13T02:33:04;17.35;;;6.35;;
60098;SDS011;62818;49.394;8.686;2023-10-13T02:34:06;11.15;;;4.75;;
60098;SDS011;62818;49.394;8.686;2023-10-13T02:35:08;9.73;;;4.85;;
60098;SDS011;62818;49.394;8.686;2023-10-13T02:36:15;9.50;;;5.43;;
60098;SDS011;62818;49.394;8.686;2023-10-13T02:37:24;13.10;;;5.05;;
60098;SDS011;62818;49.394;8.686;2023-10-13T02:38:24;17.43;;;6.47;;
60098;SDS011;62818;49.394;8.686;2023-10-13T02:39:42;11.68;;;4.95;;
60098;SDS011;62818;49.394;8.686;2023-10-13T02:40:42;15.10;;;5.27;;
60098;SDS011;62818;49.394;8.686;2023-10-13T02:41:43;15.13;;;5.10;;
60098;SDS011;62818;49.394;8.686;2023-10-13T02:42:48;16.92;;;4.88;;
60098;SDS011;62818;49.394;8.686;2023-10-13T02:43:49;12.57;;;5.00;;
60098;SDS011;62818;49.394;8.686;2023-10-13T02:44:50;13.40;;;5.30;;
60098;SDS011;62818;49.394;8.686;2023-10-13T02:45:52;13.85;;;5.15;;
60098;SDS011;62818;49.394;8.686;2023-10-13T02:46:58;20.50;;;5.65;;
60098;SDS011;62818;49.394;8.686;2023-10-13T02:47:59;17.83;;;5.95;;
60098;SDS011;62818;49.394;8.686;2023-10-13T02:49:17;13.18;;;4.88;;
60098;SDS011;62818;49.394;8.686;2023-10-13T02:50:19;16.40;;;4.72;;
60098;SDS011;62818;49.394;8.686;2023-10-13T02:51:24;15.18;;;5.22;;
60098;SDS011;62818;49.394;8.686;2023-10-13T02:52:37;19.45;;;5.50;;
60098;SDS011;62818;49.394;8.686;2023-10-13T02:53:42;14.02;;;5.28;;
60098;SDS011;62818;49.394;8.686;2023-10-13T02:54:49;14.25;;;5.53;;
60098;SDS011;62818;49.394;8.686;2023-10-13T02:55:52;15.38;;;5.57;;
60098;SDS011;62818;49.394;8.686;2023-10-13T02:56:55;12.02;;;5.50;;
60098;SDS011;62818;49.394;8.686;2023-10-13T02:58:03;14.15;;;5.15;;
60098;SDS011;62818;49.394;8.686;2023-10-13T02:59:04;13.67;;;4.93;;
60098;SDS011;62818;49.394;8.686;2023-10-13T03:00:08;14.57;;;5.03;;
60098;SDS011;62818;49.394;8.686;2023-10-13T03:01:12;11.95;;;4.63;;
60098;SDS011;62818;49.394;8.686;2023-10-13T03:02:18;14.70;;;5.05;;
60098;SDS011;62818;49.394;8.686;2023-10-13T03:03:29;13.63;;;4.72;;
60098;SDS011;62818;49.394;8.686;2023-10-13T03:04:30;19.73;;;5.57;;
60098;SDS011;62818;49.394;8.686;2023-10-13T03:05:33;11.43;;;4.47;;
60098;SDS011;62818;49.394;8.686;2023-10-13T03:06:35;16.48;;;4.70;;
60098;SDS011;62818;49.394;8.686;2023-10-13T03:07:40;16.13;;;4.70;;
60098;SDS011;62818;49.394;8.686;2023-10-13T03:08:44;10.43;;;4.72;;
60098;SDS011;62818;49.394;8.686;2023-10-13T03:09:45;10.73;;;4.07;;
60098;SDS011;62818;49.394;8.686;2023-10-13T03:10:52;16.45;;;5.80;;
60098;SDS011;62818;49.394;8.686;2023-10-13T03:11:54;10.55;;;4.63;;
60098;SDS011;62818;49.394;8.686;2023-10-13T03:12:54;15.60;;;4.93;;
60098;SDS011;62818;49.394;8.686;2023-10-13T03:13:55;16.90;;;4.40;;
60098;SDS011;62818;49.394;8.686;2023-10-13T03:14:56;13.20;;;4.50;;
60098;SDS011;62818;49.394;8.686;2023-10-13T03:16:15;11.77;;;4.45;;
60098;SDS011;62818;49.394;8.686;2023-10-13T03:17:17;14.32;;;5.18;;
60098;SDS011;62818;49.394;8.686;2023-10-13T03:18:19;10.13;;;4.60;;
60098;SDS011;62818;49.394;8.686;2023-10-13T03:19:19;13.10;;;4.90;;
60098;SDS011;62818;49.394;8.686;2023-10-13T03:20:20;10.35;;;4.38;;
60098;SDS011;62818;49.394;8.686;2023-10-13T03:21:33;9.25;;;4.35;;
60098;SDS011;62818;49.394;8.686;2023-10-13T03:22:36;7.93;;;4.00;;
60098;SDS011;62818;49.394;8.686;2023-10-13T03:23:37;13.00;;;4.80;;
60098;SDS011;62818;49.394;8.686;2023-10-13T03:24:46;12.30;;;4.85;;
60098;SDS011;62818;49.394;8.686;2023-10-13T03:25:47;16.07;;;5.33;;
60098;SDS011;62818;49.394;8.686;2023-10-13T03:26:50;19.50;;;5.00;;
60098;SDS011;62818;49.394;8.686;2023-10-13T03:27:52;17.23;;;4.53;;
60098;SDS011;62818;49.394;8.686;2023-10-13T03:28:53;14.37;;;5.10;;
60098;SDS011;62818;49.394;8.686;2023-10-13T03:29:54;15.55;;;4.70;;
60098;SDS011;62818;49.394;8.686;2023-10-13T03:30:54;13.47;;;4.37;;
60098;SDS011;62818;49.394;8.686;2023-10-13T03:31:55;9.33;;;4.60;;
60098;SDS011;62818;49.394;8.686;2023-10-13T03:33:07;10.15;;;4.80;;
60098;SDS011;62818;49.394;8.686;2023-10-13T03:34:13;15.32;;;4.93;;
60098;SDS011;62818;49.394;8.686;2023-10-13T03:35:14;15.45;;;5.00;;
60098;SDS011;62818;49.394;8.686;2023-10-13T03:36:24;12.00;;;4.63;;
60098;SDS011;62818;49.394;8.686;2023-10-13T03:37:44;12.02;;;4.70;;
60098;SDS011;62818;49.394;8.686;2023-10-13T03:38:45;11.43;;;5.17;;
60098;SDS011;62818;49.394;8.686;2023-10-13T03:39:46;10.27;;;5.17;;
60098;SDS011;62818;49.394;8.686;2023-10-13T03:40:47;17.83;;;5.17;;
60098;SDS011;62818;49.394;8.686;2023-10-13T03:42:11;14.70;;;4.65;;
60098;SDS011;62818;49.394;8.686;2023-10-13T03:43:22;9.95;;;4.53;;
60098;SDS011;62818;49.394;8.686;2023-10-13T03:45:24;13.80;;;5.38;;
60098;SDS011;62818;49.394;8.686;2023-10-13T03:46:25;16.17;;;5.03;;
60098;SDS011;62818;49.394;8.686;2023-10-13T03:47:26;12.73;;;4.93;;
60098;SDS011;62818;49.394;8.686;2023-10-13T03:48:27;15.07;;;4.67;;
60098;SDS011;62818;49.394;8.686;2023-10-13T03:49:27;12.73;;;4.90;;
60098;SDS011;62818;49.394;8.686;2023-10-13T03:51:31;14.20;;;4.50;;
60098;SDS011;62818;49.394;8.686;2023-10-13T03:52:33;14.07;;;5.10;;
60098;SDS011;62818;49.394;8.686;2023-10-13T03:53:36;14.63;;;4.82;;
60098;SDS011;62818;49.394;8.686;2023-10-13T03:54:53;12.70;;;4.40;;
60098;SDS011;62818;49.394;8.686;2023-10-13T03:55:54;11.70;;;5.07;;
60098;SDS011;62818;49.394;8.686;2023-10-13T03:57:08;13.52;;;5.13;;
60098;SDS011;62818;49.394;8.686;2023-10-13T03:58:11;12.13;;;4.50;;
60098;SDS011;62818;49.394;8.686;2023-10-13T03:59:12;16.88;;;4.95;;
60098;SDS011;62818;49.394;8.686;2023-10-13T04:00:16;13.93;;;4.53;;
60098;SDS011;62818;49.394;8.686;2023-10-13T04:01:23;12.98;;;6.13;;
60098;SDS011;62818;49.394;8.686;2023-10-13T04:02:43;10.63;;;4.50;;
60098;SDS011;62818;49.394;8.686;2023-10-13T04:03:51;12.18;;;4.95;;
60098;SDS011;62818;49.394;8.686;2023-10-13T04:05:03;14.20;;;4.70;;
60098;SDS011;62818;49.394;8.686;2023-10-13T04:06:08;12.23;;;5.30;;
60098;SDS011;62818;49.394;8.686;2023-10-13T04:07:16;14.57;;;5.90;;
60098;SDS011;62818;49.394;8.686;2023-10-13T04:08:25;9.45;;;4.65;;
60098;SDS011;62818;49.394;8.686;2023-10-13T04:09:28;16.17;;;5.47;;
60098;SDS011;62818;49.394;8.686;2023-10-13T04:10:29;12.17;;;5.23;;
60098;SDS011;62818;49.394;8.686;2023-10-13T04:13:03;13.40;;;5.87;;
60098;SDS011;62818;49.394;8.686;2023-10-13T04:14:13;16.38;;;5.50;;
60098;SDS011;62818;49.394;8.686;2023-10-13T04:15:23;15.18;;;5.78;;
60098;SDS011;62818;49.394;8.686;2023-10-13T04:16:27;15.85;;;5.38;;
60098;SDS011;62818;49.394;8.686;2023-10-13T04:17:27;16.17;;;4.90;;
60098;SDS011;62818;49.394;8.686;2023-10-13T04:18:29;15.73;;;5.72;;
60098;SDS011;62818;49.394;8.686;2023-10-13T04:19:50;19.95;;;6.07;;
60098;SDS011;62818;49.394;8.686;2023-10-13T04:21:07;13.13;;;5.45;;
60098;SDS011;62818;49.394;8.686;2023-10-13T04:22:18;11.70;;;4.80;;
60098;SDS011;62818;49.394;8.686;2023-10-13T04:23:20;18.30;;;5.47;;
60098;SDS011;62818;49.394;8.686;2023-10-13T04:24:26;12.15;;;5.63;;
60098;SDS011;62818;49.394;8.686;2023-10-13T04:25:37;12.98;;;5.60;;
60098;SDS011;62818;49.394;8.686;2023-10-13T04:26:40;18.38;;;5.28;;
60098;SDS011;62818;49.394;8.686;2023-10-13T04:28:01;16.10;;;5.28;;
60098;SDS011;62818;49.394;8.686;2023-10-13T04:29:12;13.82;;;5.07;;
60098;SDS011;62818;49.394;8.686;2023-10-13T04:30:27;17.17;;;5.30;;
60098;SDS011;62818;49.394;8.686;2023-10-13T04:31:48;15.68;;;5.15;;
60098;SDS011;62818;49.394;8.686;2023-10-13T04:32:59;14.75;;;5.30;;
60098;SDS011;62818;49.394;8.686;2023-10-13T04:34:35;11.05;;;4.70;;
60098;SDS011;62818;49.394;8.686;2023-10-13T04:35:39;11.27;;;4.75;;
60098;SDS011;62818;49.394;8.686;2023-10-13T04:36:47;17.20;;;5.53;;
60098;SDS011;62818;49.394;8.686;2023-10-13T04:37:55;10.18;;;4.32;;
60098;SDS011;62818;49.394;8.686;2023-10-13T04:38:59;13.10;;;4.32;;
60098;SDS011;62818;49.394;8.686;2023-10-13T04:40:00;13.05;;;4.60;;
60098;SDS011;62818;49.394;8.686;2023-10-13T04:41:09;17.75;;;4.65;;
60098;SDS011;62818;49.394;8.686;2023-10-13T04:42:22;16.17;;;4.78;;
60098;SDS011;62818;49.394;8.686;2023-10-13T04:43:41;16.48;;;4.90;;
60098;SDS011;62818;49.394;8.686;2023-10-13T04:44:56;16.63;;;5.05;;
60098;SDS011;62818;49.394;8.686;2023-10-13T04:46:02;12.07;;;4.10;;
60098;SDS011;62818;49.394;8.686;2023-10-13T04:47:35;14.73;;;4.60;;
60098;SDS011;62818;49.394;8.686;2023-10-13T04:48:48;16.67;;;4.88;;
60098;SDS011;62818;49.394;8.686;2023-10-13T04:49:48;13.50;;;4.57;;
60098;SDS011;62818;49.394;8.686;2023-10-13T04:50:49;18.77;;;4.80;;
60098;SDS011;62818;49.394;8.686;2023-10-13T04:52:16;14.85;;;4.70;;
60098;SDS011;62818;49.394;8.686;2023-10-13T04:53:35;16.15;;;5.28;;
60098;SDS011;62818;49.394;8.686;2023-10-13T04:54:56;14.32;;;5.32;;
60098;SDS011;62818;49.394;8.686;2023-10-13T04:56:09;12.32;;;4.78;;
60098;SDS011;62818;49.394;8.686;2023-10-13T04:57:29;17.52;;;5.10;;
60098;SDS011;62818;49.394;8.686;2023-10-13T04:58:32;7.93;;;4.25;;
60098;SDS011;62818;49.394;8.686;2023-10-13T04:59:33;15.82;;;4.53;;
60098;SDS011;62818;49.394;8.686;2023-10-13T05:00:37;12.88;;;4.78;;
60098;SDS011;62818;49.394;8.686;2023-10-13T05:02:16;9.82;;;4.30;;
60098;SDS011;62818;49.394;8.686;2023-10-13T05:03:43;13.98;;;4.30;;
60098;SDS011;62818;49.394;8.686;2023-10-13T05:05:09;9.00;;;4.13;;
60098;SDS011;62818;49.394;8.686;2023-10-13T05:06:14;12.55;;;4.70;;
60098;SDS011;62818;49.394;8.686;2023-10-13T05:07:34;9.07;;;4.47;;
60098;SDS011;62818;49.394;8.686;2023-10-13T05:08:53;12.85;;;4.15;;
60098;SDS011;62818;49.394;8.686;2023-10-13T05:10:12;10.15;;;4.30;;
60098;SDS011;62818;49.394;8.686;2023-10-13T05:11:31;15.45;;;4.85;;
60098;SDS011;62818;49.394;8.686;2023-10-13T05:12:50;15.38;;;4.25;;
60098;SDS011;62818;49.394;8.686;2023-10-13T05:14:09;21.80;;;4.95;;
60098;SDS011;62818;49.394;8.686;2023-10-13T05:15:28;13.18;;;4.57;;
60098;SDS011;62818;49.394;8.686;2023-10-13T05:16:47;10.68;;;4.47;;
60098;SDS011;62818;49.394;8.686;2023-10-13T05:18:06;13.90;;;4.60;;
60098;SDS011;62818;49.394;8.686;2023-10-13T05:19:25;15.52;;;4.15;;
60098;SDS011;62818;49.394;8.686;2023-10-13T05:20:44;11.95;;;4.00;;
60098;SDS011;62818;49.394;8.686;2023-10-13T05:22:03;11.60;;;3.75;;
60098;SDS011;62818;49.394;8.686;2023-10-13T05:23:22;12.32;;;4.80;;
60098;SDS011;62818;49.394;8.686;2023-10-13T05:24:41;12.95;;;4.25;;
60098;SDS011;62818;49.394;8.686;2023-10-13T05:26:01;13.25;;;4.47;;
60098;SDS011;62818;49.394;8.686;2023-10-13T05:27:21;10.73;;;4.57;;
60098;SDS011;62818;49.394;8.686;2023-10-13T05:28:39;13.65;;;4.72;;
60098;SDS011;62818;49.394;8.686;2023-10-13T05:29:58;11.38;;;4.72;;
60098;SDS011;62818;49.394;8.686;2023-10-13T05:31:17;10.30;;;4.38;;
60098;SDS011;62818;49.394;8.686;2023-10-13T05:32:36;13.23;;;4.50;;
60098;SDS011;62818;49.394;8.686;2023-10-13T05:33:55;13.30;;;4.38;;
60098;SDS011;62818;49.394;8.686;2023-10-13T05:35:15;10.10;;;4.45;;
60098;SDS011;62818;49.394;8.686;2023-10-13T05:36:34;12.10;;;3.97;;
60098;SDS011;62818;49.394;8.686;2023-10-13T05:38:01;9.70;;;4.43;;
60098;SDS011;62818;49.394;8.686;2023-10-13T05:39:20;15.02;;;5.13;;
60098;SDS011;62818;49.394;8.686;2023-10-13T05:40:39;16.92;;;4.95;;
60098;SDS011;62818;49.394;8.686;2023-10-13T05:41:59;10.15;;;4.57;;
60098;SDS011;62818;49.394;8.686;2023-10-13T05:43:17;14.25;;;4.40;;
60098;SDS011;62818;49.394;8.686;2023-10-13T05:44:37;12.82;;;4.45;;
60098;SDS011;62818;49.394;8.686;2023-10-13T05:45:47;13.68;;;5.43;;
60098;SDS011;62818;49.394;8.686;2023-10-13T05:47:23;11.20;;;4.60;;
60098;SDS011;62818;49.394;8.686;2023-10-13T05:48:38;9.05;;;4.10;;
60098;SDS011;62818;49.394;8.686;2023-10-13T05:49:57;11.88;;;4.22;;
60098;SDS011;62818;49.394;8.686;2023-10-13T05:51:24;9.30;;;3.90;;
60098;SDS011;62818;49.394;8.686;2023-10-13T05:52:35;15.80;;;4.35;;
60098;SDS011;62818;49.394;8.686;2023-10-13T05:53:54;14.25;;;4.90;;
60098;SDS011;62818;49.394;8.686;2023-10-13T05:55:13;9.35;;;4.35;;
60098;SDS011;62818;49.394;8.686;2023-10-13T05:56:32;10.63;;;4.00;;
60098;SDS011;62818;49.394;8.686;2023-10-13T05:57:51;10.15;;;3.80;;
60098;SDS011;62818;49.394;8.686;2023-10-13T05:59:23;9.45;;;4.70;;
60098;SDS011;62818;49.394;8.686;2023-10-13T06:00:43;8.52;;;3.88;;
60098;SDS011;62818;49.394;8.686;2023-10-13T06:02:02;11.13;;;4.70;;
60098;SDS011;62818;49.394;8.686;2023-10-13T06:03:21;9.30;;;3.92;;
60098;SDS011;62818;49.394;8.686;2023-10-13T06:04:40;6.72;;;4.18;;
60098;SDS011;62818;49.394;8.686;2023-10-13T06:05:59;10.80;;;4.00;;
60098;SDS011;62818;49.394;8.686;2023-10-13T06:07:18;9.25;;;4.30;;
60098;SDS011;62818;49.394;8.686;2023-10-13T06:08:37;12.60;;;3.97;;
60098;SDS011;62818;49.394;8.686;2023-10-13T06:09:56;11.63;;;3.75;;
60098;SDS011;62818;49.394;8.686;2023-10-13T06:11:15;7.28;;;3.88;;
60098;SDS011;62818;49.394;8.686;2023-10-13T06:12:35;10.30;;;3.65;;
60098;SDS011;62818;49.394;8.686;2023-10-13T06:13:54;10.77;;;3.85;;
60098;SDS011;62818;49.394;8.686;2023-10-13T06:15:12;8.20;;;3.55;;
60098;SDS011;62818;49.394;8.686;2023-10-13T06:16:31;10.10;;;4.10;;
60098;SDS011;62818;49.394;8.686;2023-10-13T06:17:51;10.35;;;3.67;;
60098;SDS011;62818;49.394;8.686;2023-10-13T06:19:10;11.40;;;3.53;;
60098;SDS011;62818;49.394;8.686;2023-10-13T06:20:29;10.85;;;4.03;;
60098;SDS011;62818;49.394;8.686;2023-10-13T06:21:47;15.10;;;4.15;;
60098;SDS011;62818;49.394;8.686;2023-10-13T06:23:07;14.48;;;4.10;;
60098;SDS011;62818;49.394;8.686;2023-10-13T06:24:26;13.15;;;4.03;;
60098;SDS011;62818;49.394;8.686;2023-10-13T06:25:52;10.00;;;3.88;;
60098;SDS011;62818;49.394;8.686;2023-10-13T06:27:12;9.48;;;3.63;;
60098;SDS011;62818;49.394;8.686;2023-10-13T06:28:32;9.25;;;3.70;;
60098;SDS011;62818;49.394;8.686;2023-10-13T06:29:42;14.20;;;3.55;;
60098;SDS011;62818;49.394;8.686;2023-10-13T06:30:58;9.70;;;4.13;;
60098;SDS011;62818;49.394;8.686;2023-10-13T06:32:02;13.20;;;4.25;;
60098;SDS011;62818;49.394;8.686;2023-10-13T06:33:10;12.75;;;4.32;;
60098;SDS011;62818;49.394;8.686;2023-10-13T06:34:11;12.30;;;4.15;;
60098;SDS011;62818;49.394;8.686;2023-10-13T06:35:16;10.50;;;5.15;;
60098;SDS011;62818;49.394;8.686;2023-10-13T06:36:22;7.82;;;4.00;;
60098;SDS011;62818;49.394;8.686;2023-10-13T06:37:26;11.60;;;4.00;;
60098;SDS011;62818;49.394;8.686;2023-10-13T06:38:31;17.55;;;4.07;;
60098;SDS011;62818;49.394;8.686;2023-10-13T06:39:36;11.98;;;4.10;;
60098;SDS011;62818;49.394;8.686;2023-10-13T06:40:36;11.83;;;3.93;;
60098;SDS011;62818;49.394;8.686;2023-10-13T06:41:39;10.60;;;3.95;;
60098;SDS011;62818;49.394;8.686;2023-10-13T06:42:40;15.95;;;3.92;;
60098;SDS011;62818;49.394;8.686;2023-10-13T06:43:44;10.00;;;3.55;;
60098;SDS011;62818;49.394;8.686;2023-10-13T06:45:47;12.98;;;3.88;;
60098;SDS011;62818;49.394;8.686;2023-10-13T06:47:07;12.02;;;4.20;;
60098;SDS011;62818;49.394;8.686;2023-10-13T06:48:08;11.68;;;4.30;;
60098;SDS011;62818;49.394;8.686;2023-10-13T06:49:11;10.93;;;3.60;;